Terminal Aerodrome Forecast
Issued by NWS

Home | Current Version | Previous Version | Text Only | Print | Product List | Glossary On
Versions: 1 2 3 4 5 6 7 8 9 10 11 12 13 14 15 16
881
FTUS46 KSEW 052328
TAFHQM
TAF
KHQM 052328Z 0600/0624 16027G36KT 1SM RA BR FEW013 BKN026 OVC045
      WS020/19055KT
     FM060100 22025G35KT 4SM -RA BR BKN013
     FM060400 24015G24KT 5SM -SHRA BKN020 BKN050
     FM060700 26015G22KT P6SM -SHRA BKN020 OVC050
     FM061200 22010KT P6SM VCSH SCT050 BKN100
     FM061500 20008KT P6SM SCT050 BKN100=

USA.gov is the U.S. government's official web portal to all federal, state and local government web resources and services.